createdAt,value
2018-11-04T00:03:16.632Z,27.30
2018-11-04T00:07:19.124Z,27.33
2018-11-04T00:11:21.596Z,27.27
2018-11-04T00:15:23.872Z,24.33
2018-11-04T00:19:26.230Z,24.53
2018-11-04T00:23:28.541Z,26.50
2018-11-04T00:27:30.860Z,25.73
2018-11-04T00:31:33.136Z,23.13
2018-11-04T00:35:35.477Z,26.30
2018-11-04T00:39:37.765Z,24.43
2018-11-04T00:43:40.068Z,27.20
2018-11-04T00:47:42.405Z,26.97
2018-11-04T00:51:44.739Z,26.40
2018-11-04T00:55:47.063Z,27.77
2018-11-04T00:59:49.420Z,28.20
2018-11-04T01:03:51.747Z,26.23
2018-11-04T01:07:54.079Z,25.83
2018-11-04T01:11:56.396Z,26.40
2018-11-04T01:15:58.734Z,28.90
2018-11-04T01:20:01.116Z,27.10
2018-11-04T01:24:03.475Z,26.57
2018-11-04T01:28:05.939Z,28.17
2018-11-04T01:32:08.341Z,26.97
2018-11-04T01:36:10.680Z,28.00
2018-11-04T01:40:13.074Z,27.67
2018-11-04T01:44:16.044Z,26.80
2018-11-04T01:48:18.429Z,25.60
2018-11-04T01:52:20.763Z,26.10
2018-11-04T01:56:23.281Z,27.47
2018-11-04T02:00:25.563Z,28.83
2018-11-04T02:04:27.850Z,29.07
2018-11-04T02:08:30.198Z,29.87
2018-11-04T02:12:32.489Z,31.60
2018-11-04T02:16:35.541Z,30.07
2018-11-04T02:20:37.918Z,29.67
2018-11-04T02:24:40.238Z,30.47
2018-11-04T02:28:42.590Z,30.67
2018-11-04T02:32:45.740Z,30.77
2018-11-04T02:36:48.063Z,28.30
2018-11-04T02:40:50.364Z,28.90
2018-11-04T02:44:52.658Z,30.83
2018-11-04T02:48:54.988Z,31.93
2018-11-04T02:52:57.300Z,29.50
2018-11-04T02:56:59.730Z,25.53
2018-11-04T03:01:02.395Z,24.67
2018-11-04T03:05:06.202Z,26.27
2018-11-04T03:09:09.242Z,27.23
2018-11-04T03:13:11.830Z,28.23
2018-11-04T03:17:14.217Z,29.20
2018-11-04T03:21:16.970Z,24.87
2018-11-04T03:25:19.282Z,26.60
2018-11-04T03:29:21.628Z,25.70
2018-11-04T03:33:23.960Z,24.90
2018-11-04T03:37:26.384Z,23.73
2018-11-04T03:41:28.794Z,25.47
2018-11-04T03:45:31.232Z,23.87
2018-11-04T03:49:33.642Z,25.07
2018-11-04T03:53:36.099Z,24.80
2018-11-04T03:57:38.519Z,24.93
2018-11-04T04:01:40.824Z,27.73
2018-11-04T04:05:43.174Z,25.07
2018-11-04T04:09:45.478Z,23.93
2018-11-04T04:13:47.756Z,25.83
2018-11-04T04:17:50.022Z,28.73
2018-11-04T04:21:52.352Z,28.13
2018-11-04T04:25:54.624Z,28.20
2018-11-04T04:29:57.119Z,30.17
2018-11-04T04:33:59.462Z,25.00
2018-11-04T04:38:07.616Z,25.83
2018-11-04T04:42:09.981Z,26.83
2018-11-04T04:46:12.309Z,24.80
2018-11-04T04:50:14.631Z,24.37
2018-11-04T04:54:16.961Z,24.37
2018-11-04T04:58:19.478Z,25.13
2018-11-04T05:02:21.807Z,29.23
2018-11-04T05:06:24.197Z,25.93
2018-11-04T05:10:26.501Z,28.03
2018-11-04T05:14:28.893Z,27.40
2018-11-04T05:18:31.131Z,29.97
2018-11-04T05:22:33.565Z,27.70
2018-11-04T05:26:35.897Z,28.10
2018-11-04T05:30:38.239Z,28.77
2018-11-04T05:34:50.287Z,28.10
2018-11-04T05:38:52.646Z,30.77
2018-11-04T05:42:55.018Z,29.33
2018-11-04T05:46:57.311Z,27.70
2018-11-04T05:50:59.666Z,28.83
2018-11-04T05:55:01.999Z,28.63
2018-11-04T05:59:04.382Z,30.23
2018-11-04T06:03:06.678Z,29.63
2018-11-04T06:07:09.024Z,28.40
2018-11-04T06:11:11.362Z,32.23
2018-11-04T06:15:14.136Z,31.63
2018-11-04T06:19:16.497Z,33.83
2018-11-04T06:23:18.832Z,31.70
2018-11-04T06:27:21.185Z,33.57
2018-11-04T06:31:23.523Z,30.43
2018-11-04T06:35:25.837Z,34.27
2018-11-04T06:39:28.185Z,35.23
2018-11-04T06:43:30.542Z,35.60
2018-11-04T06:47:32.895Z,36.43
2018-11-04T06:51:35.269Z,36.13
2018-11-04T06:55:37.606Z,37.83
2018-11-04T06:59:39.981Z,37.80
2018-11-04T07:03:53.958Z,35.57
2018-11-04T07:07:56.343Z,36.50
2018-11-04T07:11:58.758Z,36.40
2018-11-04T07:16:01.185Z,33.23
2018-11-04T07:20:04.048Z,32.37
2018-11-04T08:08:44.922Z,35.20
2018-11-04T08:12:47.668Z,35.53
2018-11-04T08:16:50.588Z,39.47
2018-11-04T08:20:53.317Z,35.87
2018-11-04T08:29:23.663Z,35.17
2018-11-04T08:33:26.269Z,32.57
2018-11-04T08:37:28.708Z,33.43
2018-11-04T08:41:31.211Z,35.27
2018-11-04T08:45:33.799Z,33.77
2018-11-04T08:49:36.327Z,34.00
2018-11-04T08:53:38.865Z,33.73
2018-11-04T08:57:41.519Z,35.23
2018-11-04T09:01:44.081Z,35.47
2018-11-04T09:05:46.502Z,34.30
2018-11-04T09:09:49.077Z,35.07
2018-11-04T09:13:51.582Z,34.30
2018-11-04T09:17:54.152Z,36.03
2018-11-04T09:21:56.759Z,35.67
2018-11-04T09:25:59.122Z,36.63
2018-11-04T09:30:01.667Z,37.33
2018-11-04T09:34:04.445Z,35.50
2018-11-04T09:38:07.157Z,36.70
2018-11-04T09:42:09.631Z,34.07
2018-11-04T09:46:12.116Z,35.87
2018-11-04T09:50:21.255Z,31.93
2018-11-04T09:54:23.822Z,34.63
2018-11-04T09:58:26.336Z,33.57
2018-11-04T10:02:28.914Z,33.43
2018-11-04T10:06:31.557Z,33.47
2018-11-04T10:10:34.110Z,33.80
2018-11-04T10:14:36.705Z,35.30
2018-11-04T10:18:39.287Z,33.80
2018-11-04T10:22:42.001Z,34.63
2018-11-04T10:26:44.602Z,34.47
2018-11-04T10:30:47.121Z,35.33
2018-11-04T10:34:51.828Z,35.07
2018-11-04T10:38:54.334Z,33.77
2018-11-04T10:42:57.606Z,31.20
2018-11-04T10:47:00.265Z,34.13
2018-11-04T10:51:03.545Z,32.20
2018-11-04T10:55:07.801Z,32.57
2018-11-04T10:59:10.296Z,34.67
2018-11-04T11:03:13.140Z,35.23
2018-11-04T11:07:15.757Z,33.17
2018-11-04T11:11:18.453Z,34.43
2018-11-04T11:15:20.980Z,30.07
2018-11-04T11:19:23.614Z,32.20
2018-11-04T11:23:26.305Z,31.70
2018-11-04T11:27:29.116Z,30.37
2018-11-04T11:31:31.737Z,31.10
2018-11-04T11:35:35.214Z,29.57
2018-11-04T11:39:37.706Z,30.33
2018-11-04T11:43:40.169Z,28.37
2018-11-04T11:47:42.610Z,29.23
2018-11-04T11:51:45.216Z,28.17
2018-11-04T11:55:48.558Z,29.37
2018-11-04T11:59:51.344Z,27.17
2018-11-04T12:03:53.928Z,28.43
2018-11-04T12:07:56.764Z,25.67
2018-11-04T12:11:59.259Z,25.87
2018-11-04T12:16:01.890Z,26.87
2018-11-04T12:20:06.028Z,26.60
2018-11-04T12:24:09.178Z,30.00
2018-11-04T12:28:12.099Z,31.63
2018-11-04T12:32:14.532Z,24.77
2018-11-04T12:36:18.390Z,23.10
2018-11-04T12:40:21.987Z,27.83
2018-11-04T12:44:25.013Z,22.77
2018-11-04T12:48:27.607Z,20.87
2018-11-04T12:52:30.151Z,20.27
2018-11-04T12:56:32.618Z,22.13
2018-11-04T13:00:35.121Z,21.33
2018-11-04T13:04:38.347Z,20.23
2018-11-04T13:08:41.945Z,19.63
2018-11-04T13:12:44.599Z,18.97
2018-11-04T13:16:47.274Z,22.17
2018-11-04T13:20:50.378Z,19.93
2018-11-04T13:24:53.507Z,27.80
2018-11-04T13:28:56.169Z,25.57
2018-11-04T13:32:59.333Z,18.73
2018-11-04T13:37:03.359Z,25.70
2018-11-04T13:41:06.879Z,23.57
2018-11-04T13:45:10.223Z,22.27
2018-11-04T13:49:12.768Z,22.00
2018-11-04T13:53:15.248Z,20.23
2018-11-04T13:57:17.754Z,18.77
2018-11-04T14:01:21.245Z,17.40
2018-11-04T14:05:23.735Z,19.27
2018-11-04T14:09:26.690Z,20.80
2018-11-04T14:13:31.466Z,23.63
2018-11-04T14:17:34.552Z,24.07
2018-11-04T14:21:37.704Z,20.67
2018-11-04T14:25:41.043Z,16.07
2018-11-04T14:29:43.662Z,20.03
2018-11-04T14:33:46.979Z,23.33
2018-11-04T14:37:49.972Z,18.10
2018-11-04T14:41:52.454Z,17.80
2018-11-04T14:45:55.096Z,18.23
2018-11-04T14:49:58.109Z,16.70
2018-11-04T14:54:00.875Z,16.73
2018-11-04T14:58:05.590Z,16.00
2018-11-04T15:02:08.304Z,16.40
2018-11-04T15:06:11.212Z,14.73
2018-11-04T15:10:14.892Z,14.47
2018-11-04T15:14:17.852Z,14.13
2018-11-04T15:18:22.198Z,15.27
2018-11-04T15:22:25.040Z,14.60
2018-11-04T15:26:29.512Z,15.60
2018-11-04T15:30:32.219Z,13.50
2018-11-04T15:34:35.074Z,15.37
2018-11-04T15:38:38.484Z,14.13
2018-11-04T15:42:41.772Z,14.93
2018-11-04T15:46:44.860Z,14.97
2018-11-04T15:50:47.461Z,15.33
2018-11-04T15:54:50.279Z,14.63
2018-11-04T15:58:52.822Z,15.33
2018-11-04T16:02:56.074Z,15.90
2018-11-04T16:06:59.202Z,16.73
2018-11-04T16:11:02.331Z,16.62
2018-11-04T16:15:07.065Z,17.07
2018-11-04T16:19:09.763Z,14.73
2018-11-04T16:23:12.518Z,14.50
2018-11-04T16:27:15.787Z,13.70
2018-11-04T16:31:18.419Z,17.67
2018-11-04T16:35:21.396Z,17.77
2018-11-04T16:39:24.588Z,17.07
2018-11-04T16:43:27.681Z,20.00
2018-11-04T16:47:30.329Z,17.90
2018-11-04T16:51:33.128Z,19.10
2018-11-04T16:55:35.687Z,18.87
2018-11-04T16:59:39.577Z,17.03
2018-11-04T17:03:42.251Z,18.80
2018-11-04T17:07:44.869Z,15.30
2018-11-04T17:11:47.860Z,15.33
2018-11-04T17:15:51.232Z,16.70
2018-11-04T17:19:54.003Z,15.30
2018-11-04T17:23:56.517Z,15.73
2018-11-04T17:27:59.996Z,13.13
2018-11-04T17:32:02.926Z,13.80
2018-11-04T17:36:05.775Z,16.07
2018-11-04T17:40:09.794Z,16.23
2018-11-04T17:44:12.979Z,17.60
2018-11-04T17:48:15.853Z,14.50
2018-11-04T17:52:18.828Z,18.60
2018-11-04T17:56:21.443Z,16.83
2018-11-04T18:00:25.108Z,14.37
2018-11-04T18:04:27.981Z,21.30
2018-11-04T18:08:31.105Z,18.93
2018-11-04T18:12:33.960Z,15.07
2018-11-04T18:16:37.668Z,15.43
2018-11-04T18:20:40.273Z,17.43
2018-11-04T18:24:43.158Z,16.40
2018-11-04T18:28:45.861Z,15.63
2018-11-04T18:32:48.486Z,15.17
2018-11-04T18:36:51.962Z,17.60
2018-11-04T18:40:54.446Z,15.60
2018-11-04T18:44:57.124Z,15.27
2018-11-04T18:48:59.572Z,17.90
2018-11-04T18:53:02.185Z,18.07
2018-11-04T18:57:05.155Z,16.43
2018-11-04T19:01:07.728Z,17.60
2018-11-04T19:05:10.691Z,19.32
2018-11-04T19:09:13.172Z,17.27
2018-11-04T19:13:16.221Z,16.20
2018-11-04T19:17:19.197Z,17.57
2018-11-04T19:21:22.010Z,17.37
2018-11-04T19:25:25.807Z,18.17
2018-11-04T19:29:28.771Z,18.53
2018-11-04T19:33:31.716Z,17.67
2018-11-04T19:37:34.592Z,18.98
2018-11-04T19:41:37.676Z,18.27
2018-11-04T19:45:40.872Z,29.27
2018-11-04T19:49:43.971Z,21.43
2018-11-04T19:53:47.977Z,19.90
2018-11-04T19:57:50.569Z,18.10
2018-11-04T20:01:53.135Z,20.70
2018-11-04T20:05:55.929Z,20.65
2018-11-04T20:09:58.360Z,19.87
2018-11-04T20:14:06.591Z,17.23
2018-11-04T20:18:14.631Z,18.70
2018-11-04T20:22:17.390Z,17.97
2018-11-04T20:26:20.000Z,18.30
2018-11-04T20:30:22.495Z,19.90
2018-11-04T20:34:25.131Z,19.43
2018-11-04T20:38:33.530Z,21.37
2018-11-04T20:42:36.147Z,19.30
2018-11-04T20:46:39.084Z,21.17
2018-11-04T20:50:48.001Z,18.80
2018-11-04T20:54:50.509Z,19.80
2018-11-04T20:58:53.032Z,21.63
2018-11-04T21:02:55.966Z,21.30
2018-11-04T21:06:58.759Z,20.10
2018-11-04T21:11:01.556Z,21.80
2018-11-04T21:15:05.605Z,22.50
2018-11-04T21:19:08.251Z,21.13
2018-11-04T21:23:11.135Z,21.87
2018-11-04T21:27:13.582Z,23.13
2018-11-04T21:31:16.044Z,20.80
2018-11-04T21:35:18.555Z,22.30
2018-11-04T21:39:21.096Z,22.57
2018-11-04T21:43:24.043Z,20.37
2018-11-04T21:47:26.447Z,20.27
2018-11-04T21:51:29.051Z,20.47
2018-11-04T21:55:31.647Z,22.25
2018-11-04T21:59:36.814Z,22.80
2018-11-04T22:03:39.411Z,21.20
2018-11-04T22:07:42.800Z,19.77
2018-11-04T22:11:45.226Z,20.03
2018-11-04T22:15:47.689Z,20.37
2018-11-04T22:19:50.186Z,21.00
2018-11-04T22:23:52.731Z,21.83
2018-11-04T22:27:55.238Z,21.63
2018-11-04T22:31:57.695Z,21.43
2018-11-04T22:36:00.094Z,22.73
2018-11-04T22:40:03.360Z,21.27
2018-11-04T22:44:07.315Z,24.57
2018-11-04T22:48:10.293Z,23.83
2018-11-04T22:52:12.735Z,22.43
2018-11-04T22:56:15.169Z,23.80
2018-11-04T23:00:23.296Z,23.33
2018-11-04T23:04:31.379Z,22.83
2018-11-04T23:08:34.005Z,23.63
2018-11-04T23:12:36.691Z,22.67
2018-11-04T23:16:39.231Z,24.37
2018-11-04T23:20:41.641Z,23.00
2018-11-04T23:24:44.775Z,27.33
2018-11-04T23:28:47.303Z,25.87
2018-11-04T23:32:49.942Z,25.90
2018-11-04T23:36:53.394Z,25.23
2018-11-04T23:40:55.822Z,25.07
2018-11-04T23:44:58.488Z,25.00
2018-11-04T23:49:00.995Z,22.97
2018-11-04T23:53:03.498Z,22.37
2018-11-04T23:57:06.023Z,23.47
